Time;durP1;ratioP1;P1;durP2;ratioP2;P2;SDS_P1;SDS_P2;PMS_P1;PMS_P2;Temp;Humidity;BMP_temperature;BMP_pressure;BME280_temperature;BME280_humidity;BME280_pressure;Samples;Min_cycle;Max_cycle;Signal;HPM_P1;HPM_P2
2022/06/11 04:22:35;;;;;;;7.80;5.53;;;;;;;12.15;100.00;100894.69;5109155;27;20146;-74
2022/06/11 04:25:01;;;;;;;6.32;5.20;;;;;;;12.22;100.00;100894.84;5109403;28;20036;-74
2022/06/11 04:27:26;;;;;;;6.45;5.07;;;;;;;12.27;100.00;100889.00;5109406;28;20519;-74
2022/06/11 04:29:55;;;;;;;8.27;5.30;;;;;;;12.35;100.00;100897.00;5119960;22;20067;-77
2022/06/11 04:32:22;;;;;;;9.27;4.90;;;;;;;12.40;100.00;100897.34;5088417;28;20142;-77
2022/06/11 04:34:48;;;;;;;5.25;4.57;;;;;;;12.47;100.00;100899.16;5088915;28;20111;-77
2022/06/11 04:37:17;;;;;;;8.05;5.32;;;;;;;12.56;100.00;100909.81;5087691;28;20545;-77
2022/06/11 04:39:47;;;;;;;6.97;4.90;;;;;;;12.67;100.00;100904.13;5090686;28;20044;-77
2022/06/11 04:42:14;;;;;;;7.35;4.72;;;;;;;12.56;100.00;100881.25;5107546;28;20020;-77
2022/06/11 04:44:42;;;;;;;6.15;4.88;;;;;;;12.72;100.00;100897.25;5108981;28;20040;-77
2022/06/11 04:47:09;;;;;;;6.35;4.35;;;;;;;12.87;100.00;100904.56;5109037;28;20036;-77
2022/06/11 04:49:36;;;;;;;6.25;4.68;;;;;;;12.92;100.00;100904.88;5107573;28;20044;-77
2022/06/11 04:52:02;;;;;;;8.00;4.93;;;;;;;13.03;100.00;100915.19;5108669;28;20030;-77
2022/06/11 04:54:28;;;;;;;5.43;4.10;;;;;;;13.14;100.00;100920.16;5108927;28;20032;-77
2022/06/11 04:56:53;;;;;;;6.93;4.78;;;;;;;13.19;100.00;100912.47;5108678;28;20048;-77
2022/06/11 04:59:19;;;;;;;5.85;4.40;;;;;;;13.31;100.00;100918.31;5107507;28;20044;-77
2022/06/11 05:01:45;;;;;;;8.30;5.05;;;;;;;13.41;100.00;100918.06;5108312;28;20035;-77
2022/06/11 05:04:12;;;;;;;5.30;4.07;;;;;;;13.46;100.00;100916.53;5108681;28;20027;-77
2022/06/11 05:06:41;;;;;;;8.03;4.93;;;;;;;13.57;100.00;100904.59;5107370;28;20036;-77
2022/06/11 05:09:09;;;;;;;6.53;4.88;;;;;;;13.71;99.67;100919.91;5108534;28;20338;-77
2022/06/11 05:11:34;;;;;;;8.07;4.82;;;;;;;13.77;99.62;100911.16;5106853;28;20038;-77
2022/06/11 05:14:00;;;;;;;7.55;4.68;;;;;;;13.95;99.37;100923.41;5106988;28;20040;-77
2022/06/11 05:16:25;;;;;;;12.73;4.40;;;;;;;14.08;99.09;100929.00;5108398;28;20063;-77
2022/06/11 05:18:51;;;;;;;7.20;5.07;;;;;;;14.23;98.13;100926.38;5108417;28;20047;-77
2022/06/11 05:21:17;;;;;;;6.15;4.63;;;;;;;14.34;96.69;100928.63;5108235;28;20059;-77
2022/06/11 05:23:43;;;;;;;9.32;5.03;;;;;;;14.35;96.52;100924.94;5108161;28;20125;-77
2022/06/11 05:26:10;;;;;;;6.88;5.03;;;;;;;14.44;95.87;100934.56;5107046;28;20492;-77
2022/06/11 05:28:35;;;;;;;8.30;4.88;;;;;;;14.48;95.64;100927.03;5108362;28;20050;-77
2022/06/11 05:31:01;;;;;;;10.38;5.32;;;;;;;14.52;95.27;100931.81;5107974;28;20027;-78
2022/06/11 05:33:27;;;;;;;6.80;4.47;;;;;;;14.57;95.16;100937.47;5097269;28;20044;-77
2022/06/11 05:35:52;;;;;;;9.13;4.90;;;;;;;14.61;94.97;100929.91;5094567;28;20068;-77
2022/06/11 05:38:22;;;;;;;8.60;4.60;;;;;;;14.65;94.55;100934.72;5093118;28;20062;-77
2022/06/11 05:41:00;;;;;;;5.68;4.40;;;;;;;14.70;93.13;100936.84;5096648;28;20392;-78
2022/06/11 05:43:38;;;;;;;7.47;4.57;;;;;;;14.69;93.31;100918.28;5102111;28;20048;-79
2022/06/11 05:47:00;;;;;;;8.95;4.40;;;;;;;14.63;91.97;100898.38;5100667;28;20071;-78
2022/06/11 05:49:37;;;;;;;6.97;4.22;;;;;;;14.85;91.25;100926.13;5098991;28;20036;-78
2022/06/11 05:52:13;;;;;;;7.53;4.57;;;;;;;14.94;91.47;100922.34;5098579;28;20032;-80
2022/06/11 05:55:32;;;;;;;8.15;5.28;;;;;;;15.28;90.07;100945.91;5080626;28;20115;-78
2022/06/11 05:58:50;;;;;;;8.93;5.28;;;;;;;15.63;88.00;100930.03;5112391;28;20154;-78
2022/06/11 06:01:28;;;;;;;12.52;7.90;;;;;;;15.89;86.08;100948.28;5097290;28;20043;-76
2022/06/11 06:03:53;;;;;;;7.25;3.65;;;;;;;15.93;82.23;100939.69;5094452;28;20042;-75
2022/06/11 06:06:18;;;;;;;9.75;4.78;;;;;;;15.99;81.03;100943.44;5093896;28;20456;-74
2022/06/11 06:08:44;;;;;;;7.80;4.05;;;;;;;16.04;80.18;100942.84;5094583;28;20107;-75
2022/06/11 06:11:11;;;;;;;8.02;5.07;;;;;;;16.00;80.29;100945.13;5077202;28;20173;-74
2022/06/11 06:13:45;;;;;;;8.05;3.72;;;;;;;16.01;80.25;100931.47;5077357;28;20055;-73
2022/06/11 06:16:11;;;;;;;11.40;4.55;;;;;;;16.08;80.95;100939.59;5094823;28;20085;-72
2022/06/11 06:18:36;;;;;;;6.45;4.25;;;;;;;16.14;79.86;100940.69;5094692;28;20024;-72
2022/06/11 06:21:03;;;;;;;5.90;3.80;;;;;;;16.22;81.17;100944.06;5093184;28;20036;-73
2022/06/11 06:23:31;;;;;;;7.30;3.78;;;;;;;16.31;81.28;100952.03;5094201;28;20032;-73
2022/06/11 06:25:56;;;;;;;7.75;4.20;;;;;;;16.37;80.19;100948.56;5086865;28;20455;-73
2022/06/11 06:28:22;;;;;;;7.43;3.50;;;;;;;16.45;80.36;100949.25;5091397;28;20040;-72
2022/06/11 06:30:47;;;;;;;8.15;5.20;;;;;;;16.54;79.49;100952.59;5094000;28;20089;-71
2022/06/11 06:33:14;;;;;;;8.13;3.97;;;;;;;16.59;79.91;100949.34;5093085;28;20136;-72
2022/06/11 06:35:39;;;;;;;8.10;4.25;;;;;;;16.66;79.78;100947.53;5092667;28;20028;-71
2022/06/11 06:38:06;;;;;;;7.30;4.13;;;;;;;16.85;77.26;100948.72;5093903;28;20393;-72
2022/06/11 06:40:31;;;;;;;6.53;3.80;;;;;;;16.96;77.74;100949.00;5093584;28;20385;-72
2022/06/11 06:42:57;;;;;;;6.50;3.58;;;;;;;17.15;75.51;100950.16;5093143;28;20108;-73
2022/06/11 06:45:22;;;;;;;5.57;3.67;;;;;;;17.31;74.55;100947.13;5092328;28;20032;-72
2022/06/11 06:47:48;;;;;;;6.75;3.05;;;;;;;17.46;73.31;100948.81;5093598;28;20094;-73
2022/06/11 06:50:13;;;;;;;7.45;3.70;;;;;;;17.55;72.96;100948.47;5093196;28;20058;-73
2022/06/11 06:52:39;;;;;;;6.90;4.05;;;;;;;17.63;74.47;100945.59;5092708;28;20071;-73
2022/06/11 06:55:05;;;;;;;7.90;3.63;;;;;;;17.79;72.52;100944.41;5091712;28;20040;-73
2022/06/11 06:57:30;;;;;;;6.35;3.58;;;;;;;17.92;70.22;100950.84;5092527;28;20036;-73
2022/06/11 06:59:55;;;;;;;5.85;3.65;;;;;;;18.00;70.49;100953.38;5091226;28;20096;-73
2022/06/11 07:02:21;;;;;;;4.78;3.33;;;;;;;18.14;70.26;100950.50;5092309;28;20035;-73
2022/06/11 07:04:46;;;;;;;8.55;3.55;;;;;;;18.24;70.20;100946.53;5093301;28;20140;-73
2022/06/11 07:07:17;;;;;;;7.50;3.78;;;;;;;18.30;70.74;100949.25;5091926;28;20044;-73
2022/06/11 07:09:43;;;;;;;6.97;4.30;;;;;;;18.38;69.69;100945.50;5091383;28;20480;-73
2022/06/11 07:12:09;;;;;;;5.75;2.90;;;;;;;18.57;68.85;100947.38;5091496;28;20043;-73
2022/06/11 07:14:34;;;;;;;9.55;3.53;;;;;;;18.65;68.91;100941.78;5092593;28;20097;-74
2022/06/11 07:17:05;;;;;;;6.18;3.25;;;;;;;18.83;68.35;100940.31;5092810;28;20032;-72
2022/06/11 07:19:35;;;;;;;6.13;3.17;;;;;;;19.00;67.16;100944.22;5092946;28;20052;-72
2022/06/11 07:22:10;;;;;;;5.35;3.45;;;;;;;19.09;67.07;100940.25;5091675;28;20040;-73
2022/06/11 07:24:40;;;;;;;10.73;3.72;;;;;;;19.25;66.97;100939.78;5091205;28;20062;-73
2022/06/11 07:27:11;;;;;;;6.82;3.08;;;;;;;19.29;66.65;100945.59;5092908;28;20485;-73
2022/06/11 07:29:43;;;;;;;7.70;4.05;;;;;;;19.38;66.68;100948.88;5092788;28;20377;-76
2022/06/11 07:32:14;;;;;;;4.43;3.10;;;;;;;19.54;66.79;100945.69;5091442;28;20510;-75
2022/06/11 07:34:41;;;;;;;7.75;3.47;;;;;;;19.67;65.50;100942.94;5092516;28;20036;-75
2022/06/11 07:37:06;;;;;;;5.20;3.25;;;;;;;19.88;64.80;100933.66;5092098;28;20036;-74
2022/06/11 07:39:32;;;;;;;10.35;3.90;;;;;;;19.99;64.89;100937.56;5091458;28;20043;-75
2022/06/11 07:41:58;;;;;;;5.38;3.17;;;;;;;20.06;66.45;100933.75;5091280;28;20042;-74
2022/06/11 07:44:23;;;;;;;5.85;3.17;;;;;;;20.13;64.05;100913.97;5093805;28;20460;-74
2022/06/11 07:46:49;;;;;;;5.57;3.17;;;;;;;20.46;62.72;100938.06;5092268;28;20051;-74
2022/06/11 07:49:14;;;;;;;4.75;3.38;;;;;;;20.52;62.02;100926.34;5075754;28;20044;-77
2022/06/11 07:51:40;;;;;;;6.88;3.38;;;;;;;20.63;62.47;100922.09;5090388;28;20032;-76
2022/06/11 07:54:05;;;;;;;5.68;3.17;;;;;;;20.68;60.99;100931.22;5092575;28;20036;-73
2022/06/11 07:56:31;;;;;;;5.25;2.85;;;;;;;20.74;61.78;100929.50;5091464;28;20469;-74
2022/06/11 07:58:57;;;;;;;8.50;3.28;;;;;;;20.91;60.81;100927.84;5091934;28;20173;-74
2022/06/11 08:01:22;;;;;;;7.47;3.15;;;;;;;21.07;60.30;100926.44;5091219;28;20035;-73
2022/06/11 08:03:48;;;;;;;7.97;3.47;;;;;;;21.11;61.17;100924.91;5090834;28;20094;-75
2022/06/11 08:06:14;;;;;;;5.53;3.40;;;;;;;21.32;58.98;100931.75;5090667;28;20036;-75
2022/06/11 08:08:40;;;;;;;5.40;3.00;;;;;;;21.51;57.18;100930.69;5091989;28;20499;-75
2022/06/11 08:11:06;;;;;;;5.88;2.95;;;;;;;21.62;58.40;100929.91;5091820;28;20055;-74
2022/06/11 08:13:32;;;;;;;6.05;2.55;;;;;;;21.71;54.67;100929.59;5090196;28;20484;-75
2022/06/11 08:15:59;;;;;;;6.25;3.25;;;;;;;21.77;54.69;100929.50;5091911;28;20388;-73
2022/06/11 08:18:26;;;;;;;4.40;2.45;;;;;;;21.92;54.00;100938.06;5090722;28;20050;-75
2022/06/11 08:20:52;;;;;;;4.50;2.67;;;;;;;22.08;54.26;100931.13;5090518;28;20388;-73
2022/06/11 08:23:20;;;;;;;5.45;2.50;;;;;;;22.20;52.98;100929.28;5093571;28;20036;-73
2022/06/11 08:25:46;;;;;;;4.32;2.58;;;;;;;22.33;54.60;100927.41;5095015;28;20065;-74
2022/06/11 08:28:13;;;;;;;5.70;2.90;;;;;;;22.66;50.49;100929.56;5092442;28;20047;-74
2022/06/11 08:30:40;;;;;;;7.30;2.97;;;;;;;22.64;47.46;100924.38;5091771;28;20036;-74
2022/06/11 08:33:05;;;;;;;6.13;3.00;;;;;;;22.75;47.40;100919.97;5090130;28;20511;-73
2022/06/11 08:35:33;;;;;;;4.47;3.10;;;;;;;22.67;46.25;100928.50;5091367;28;20040;-74
2022/06/11 08:37:58;;;;;;;;;;;;;;;22.84;47.36;100931.31;5092477;28;20032;-73
2022/06/11 08:40:31;;;;;;;6.13;2.70;;;;;;;23.07;49.31;100933.19;5090493;28;19922;-74
2022/06/11 08:43:28;;;;;;;5.28;2.45;;;;;;;23.29;46.13;100936.94;5091210;28;20048;-74
2022/06/11 08:46:00;;;;;;;5.97;2.60;;;;;;;23.48;47.61;100930.28;5091600;28;20481;-74
2022/06/11 08:48:30;;;;;;;5.53;2.70;;;;;;;23.59;47.93;100927.72;5091907;28;20412;-75
2022/06/11 08:51:09;;;;;;;5.13;2.92;;;;;;;23.73;49.20;100938.09;5091352;28;20020;-75
2022/06/11 08:53:36;;;;;;;5.85;2.65;;;;;;;24.08;46.61;100924.31;5091217;28;20093;-75
2022/06/11 08:56:02;;;;;;;6.10;2.60;;;;;;;24.06;47.01;100923.75;5091409;28;20044;-75
2022/06/11 08:58:42;;;;;;;3.10;2.50;;;;;;;24.18;47.05;100914.66;5091721;28;20032;-74
2022/06/11 09:01:19;;;;;;;6.72;2.63;;;;;;;24.38;46.00;100917.75;5091425;28;20084;-73
2022/06/11 09:04:25;;;;;;;3.75;2.35;;;;;;;24.34;44.79;100917.44;5091346;28;20047;-74
2022/06/11 09:07:04;;;;;;;3.33;2.30;;;;;;;24.61;45.12;100914.03;5091118;28;20109;-76
2022/06/11 09:09:41;;;;;;;6.25;2.80;;;;;;;24.80;45.07;100914.56;5095079;28;20110;-75
2022/06/11 09:12:22;;;;;;;;;;;;;;;24.97;44.01;100904.44;5095217;28;20032;-76
2022/06/11 09:15:09;;;;;;;4.32;2.30;;;;;;;25.19;44.77;100904.47;5093945;28;19963;-75
2022/06/11 09:17:50;;;;;;;5.35;2.00;;;;;;;25.10;43.27;100906.84;5095234;28;20389;-75
2022/06/11 09:20:26;;;;;;;6.43;2.28;;;;;;;25.09;42.52;100902.44;5095046;28;20046;-75
2022/06/11 09:23:22;;;;;;;4.53;2.33;;;;;;;25.39;42.22;100907.44;5094757;28;20031;-76
2022/06/11 09:26:06;;;;;;;5.05;2.00;;;;;;;25.40;42.76;100900.91;5095052;28;20281;-74
2022/06/11 09:28:57;;;;;;;3.80;1.92;;;;;;;25.87;42.04;100904.94;5095138;28;20444;-75
2022/06/11 09:31:50;;;;;;;5.03;1.83;;;;;;;26.09;40.34;100902.16;5094997;28;20552;-74
2022/06/11 09:34:28;;;;;;;5.93;2.10;;;;;;;26.06;38.25;100906.22;5093806;28;20028;-75
2022/06/11 09:37:16;;;;;;;3.83;1.85;;;;;;;26.39;38.56;100905.09;5094835;28;20507;-77
2022/06/11 09:40:04;;;;;;;2.95;1.85;;;;;;;26.51;40.56;100900.31;5094650;28;20047;-76
2022/06/11 09:42:46;;;;;;;4.38;1.60;;;;;;;26.63;39.37;100899.28;5094304;28;20028;-76
2022/06/11 09:45:23;;;;;;;2.63;1.70;;;;;;;26.45;38.00;100897.81;5094457;28;20036;-76
2022/06/11 09:48:00;;;;;;;3.00;1.65;;;;;;;26.63;38.15;100896.56;5094307;28;20047;-77
2022/06/11 09:50:26;;;;;;;3.88;1.80;;;;;;;26.97;37.99;100900.56;5092922;28;20032;-76
2022/06/11 09:53:30;;;;;;;3.85;1.70;;;;;;;26.97;37.16;100897.81;5094148;28;20035;-77
2022/06/11 09:56:09;;;;;;;4.18;2.45;;;;;;;27.02;36.75;100897.84;5094528;28;20028;-76
2022/06/11 09:58:40;;;;;;;6.38;3.20;;;;;;;27.09;37.73;100894.09;5077137;28;20451;-76
2022/06/11 10:01:15;;;;;;;5.43;1.98;;;;;;;27.36;41.43;100904.84;5092980;28;20061;-75
2022/06/11 10:03:54;;;;;;;5.95;2.20;;;;;;;27.72;36.83;100898.41;5093906;28;20057;-77
2022/06/11 10:06:52;;;;;;;4.75;2.30;;;;;;;27.64;36.11;100895.31;5094227;28;20043;-77
2022/06/11 10:09:27;;;;;;;4.78;2.05;;;;;;;27.60;38.46;100889.59;5081419;28;20101;-76
2022/06/11 10:12:01;;;;;;;3.85;1.67;;;;;;;27.54;35.95;100893.41;5093968;28;20035;-76
2022/06/11 10:14:47;;;;;;;3.50;1.88;;;;;;;27.91;39.38;100895.09;5094160;28;20044;-76
2022/06/11 10:17:39;;;;;;;11.30;7.83;;;;;;;28.39;37.26;100888.28;5094371;28;20357;-76
2022/06/11 10:20:36;;;;;;;11.40;6.45;;;;;;;28.75;38.66;100896.41;5081277;28;20335;-76
2022/06/11 10:23:45;;;;;;;5.30;2.25;;;;;;;28.83;38.36;100893.94;5099844;28;20046;-75
2022/06/11 10:26:33;;;;;;;3.75;2.20;;;;;;;29.12;36.32;100887.81;5097056;28;20037;-75
2022/06/11 10:29:20;;;;;;;7.03;3.75;;;;;;;29.23;35.57;100875.72;5096087;28;20032;-75
2022/06/11 10:32:14;;;;;;;4.35;1.88;;;;;;;29.56;32.99;100889.81;5078583;28;20032;-76
2022/06/11 10:34:50;;;;;;;3.75;1.95;;;;;;;29.63;32.55;100879.34;5081931;23;20046;-82
2022/06/11 10:37:25;;;;;;;5.28;3.00;;;;;;;29.95;32.16;100878.81;5078615;28;20044;-85
2022/06/11 10:40:06;;;;;;;4.80;2.42;;;;;;;30.12;32.35;100883.91;5079090;28;20036;-83
2022/06/11 10:42:37;;;;;;;3.08;1.40;;;;;;;30.30;31.89;100861.22;5062504;28;20028;-81
2022/06/11 10:45:03;;;;;;;2.55;1.70;;;;;;;30.55;32.33;100873.88;5077545;28;20060;-78
2022/06/11 10:47:38;;;;;;;6.63;3.35;;;;;;;30.47;32.16;100878.09;5077751;28;20515;-84
2022/06/11 10:50:07;;;;;;;3.20;1.50;;;;;;;30.13;33.36;100874.59;5077559;28;20032;-78
2022/06/11 10:52:48;;;;;;;4.15;1.58;;;;;;;30.86;32.77;100870.81;5081988;28;20025;-79
2022/06/11 10:55:20;;;;;;;4.72;1.75;;;;;;;31.08;33.66;100874.63;5075259;28;20028;-77
2022/06/11 10:57:52;;;;;;;3.95;1.70;;;;;;;31.19;32.45;100871.75;5077632;28;20067;-85
2022/06/11 11:00:19;;;;;;;2.88;1.50;;;;;;;31.09;36.17;100869.94;5077143;28;20029;-83
2022/06/11 11:02:53;;;;;;;4.28;2.13;;;;;;;31.27;33.65;100868.38;5079439;28;20028;-81
2022/06/11 11:05:22;;;;;;;3.63;1.60;;;;;;;30.93;31.40;100869.34;5080160;28;20409;-84
2022/06/11 11:07:59;;;;;;;4.53;1.80;;;;;;;31.12;34.11;100857.56;5075882;28;20481;-83
2022/06/11 11:10:34;;;;;;;3.42;1.60;;;;;;;31.12;31.70;100866.63;5060286;28;20039;-83
2022/06/11 11:13:02;;;;;;;2.92;1.48;;;;;;;31.52;28.76;100861.69;5076428;28;20066;-84
2022/06/11 11:15:36;;;;;;;2.88;1.40;;;;;;;31.49;31.13;100851.25;5075674;28;20063;-81
2022/06/11 11:18:20;;;;;;;3.67;1.67;;;;;;;31.97;31.52;100851.88;5075421;28;20040;-83
2022/06/11 11:20:49;;;;;;;2.63;1.25;;;;;;;31.93;34.71;100853.59;5078348;28;20055;-81
2022/06/11 11:23:40;;;;;;;4.40;2.30;;;;;;;32.04;31.06;100854.25;5076743;28;20036;-80
2022/06/11 11:26:14;;;;;;;3.58;1.70;;;;;;;32.18;28.98;100854.28;5076951;28;20044;-83
2022/06/11 11:28:57;;;;;;;3.10;1.35;;;;;;;32.30;29.98;100836.13;5076847;28;20090;-84
2022/06/11 11:31:26;;;;;;;8.60;4.50;;;;;;;32.27;31.95;100845.00;5075807;28;20062;-83
2022/06/11 11:34:10;;;;;;;4.43;1.67;;;;;;;32.28;29.79;100848.59;5075487;28;20024;-86
2022/06/11 11:36:35;;;;;;;4.78;2.00;;;;;;;32.50;30.06;100840.47;5077587;28;20062;-84
2022/06/11 11:39:13;;;;;;;5.33;2.57;;;;;;;33.17;30.10;100837.97;5059062;28;20127;-85
2022/06/11 11:41:49;;;;;;;5.20;3.22;;;;;;;32.88;29.69;100840.28;5076798;28;20033;-80
2022/06/11 11:44:19;;;;;;;;;;;;;;;32.65;29.48;100848.44;5077481;28;20151;-82
2022/06/11 11:46:50;;;;;;;2.13;1.30;;;;;;;32.58;30.79;100828.72;5076739;28;19919;-82
2022/06/11 11:49:22;;;;;;;5.00;1.50;;;;;;;33.13;32.10;100831.47;5075893;28;20037;-81
2022/06/11 11:51:48;;;;;;;3.15;1.20;;;;;;;33.18;29.10;100830.50;5076623;28;20032;-81
2022/06/11 11:54:23;;;;;;;4.13;1.50;;;;;;;32.34;30.53;100828.09;5078980;28;20035;-82
2022/06/11 11:56:55;;;;;;;3.15;1.20;;;;;;;32.19;28.95;100837.44;5079187;28;20059;-83
2022/06/11 11:59:30;;;;;;;4.95;1.35;;;;;;;33.16;27.98;100828.06;5076799;28;20032;-82
2022/06/11 12:02:04;;;;;;;2.95;1.33;;;;;;;33.33;29.13;100823.84;5075041;28;20405;-82
2022/06/11 12:04:35;;;;;;;2.63;1.10;;;;;;;33.55;27.43;100818.34;5075096;28;20032;-82
2022/06/11 12:07:06;;;;;;;4.05;1.67;;;;;;;34.23;27.20;100819.94;5079665;28;20044;-81
2022/06/11 12:10:24;;;;;;;3.03;1.25;;;;;;;34.15;25.59;100811.59;5078756;28;20094;-82
2022/06/11 12:12:52;;;;;;;3.15;1.30;;;;;;;34.07;26.74;100815.13;5075338;28;20101;-82
2022/06/11 12:15:30;;;;;;;3.20;1.33;;;;;;;34.05;26.08;100817.41;5077272;28;20127;-80
2022/06/11 12:18:11;;;;;;;2.67;1.23;;;;;;;34.27;25.75;100814.56;5075057;28;20078;-80
2022/06/11 12:21:15;;;;;;;3.55;1.30;;;;;;;34.16;26.07;100805.72;5076451;28;20040;-80
2022/06/11 12:23:49;;;;;;;2.65;1.30;;;;;;;33.55;27.44;100810.06;4993717;28;20049;-81
2022/06/11 12:26:21;;;;;;;1.92;1.30;;;;;;;33.09;27.65;100805.59;5066750;28;20127;-81
2022/06/11 12:28:57;;;;;;;2.63;1.20;;;;;;;33.34;28.98;100801.44;5076577;28;20032;-81
2022/06/11 12:31:23;;;;;;;;;;;;;;;33.50;27.09;100803.84;5077560;28;20064;-81
2022/06/11 12:33:51;;;;;;;2.57;1.07;;;;;;;33.94;26.80;100805.78;5079361;28;19919;-82
2022/06/11 12:36:19;;;;;;;1.92;1.27;;;;;;;33.90;26.47;100793.69;5075535;28;20081;-81
2022/06/11 12:38:54;;;;;;;3.30;1.65;;;;;;;33.89;26.48;100798.41;5076867;28;20070;-83
2022/06/11 12:41:46;;;;;;;2.33;1.20;;;;;;;34.26;26.95;100791.66;5075058;28;20044;-80
2022/06/11 12:44:24;;;;;;;2.63;1.20;;;;;;;34.36;27.21;100796.06;5080330;28;20040;-82
2022/06/11 12:46:57;;;;;;;5.10;1.55;;;;;;;34.19;27.38;100796.00;5078566;28;20033;-81
2022/06/11 12:49:42;;;;;;;3.47;1.30;;;;;;;34.18;27.77;100797.97;5080724;28;20051;-82
2022/06/11 12:52:35;;;;;;;2.83;1.60;;;;;;;33.91;26.63;100800.91;5080405;28;20119;-78
2022/06/11 12:55:36;;;;;;;3.08;1.27;;;;;;;33.48;28.20;100804.16;5082172;28;20293;-81
2022/06/11 12:58:36;;;;;;;2.30;1.02;;;;;;;33.28;28.09;100804.63;5080675;28;20111;-79
2022/06/11 13:01:08;;;;;;;3.17;1.17;;;;;;;33.02;28.65;100796.94;5080152;28;20043;-80
2022/06/11 13:03:55;;;;;;;2.28;1.17;;;;;;;33.46;28.00;100804.47;5076022;28;20025;-79
2022/06/11 13:06:34;;;;;;;3.05;1.40;;;;;;;33.49;27.16;100797.50;5077963;28;20061;-79
2022/06/11 13:09:10;;;;;;;4.15;1.45;;;;;;;33.92;26.88;100802.53;5076049;28;20037;-80
2022/06/11 13:11:46;;;;;;;6.30;2.70;;;;;;;33.95;26.79;100802.72;5079342;28;20043;-82
2022/06/11 13:14:43;;;;;;;2.92;1.45;;;;;;;32.91;27.95;100785.31;5080425;28;20513;-80
2022/06/11 13:17:47;;;;;;;5.15;2.25;;;;;;;32.19;29.46;100793.34;5076477;28;20028;-80
2022/06/11 13:20:18;;;;;;;2.47;1.13;;;;;;;31.12;30.92;100799.78;5047293;28;20048;-78
2022/06/11 13:23:05;;;;;;;5.05;3.70;;;;;;;30.90;31.44;100798.41;5063837;28;20033;-80
2022/06/11 13:25:52;;;;;;;3.47;1.33;;;;;;;30.46;32.04;100782.19;5071520;28;20037;-78
2022/06/11 13:28:40;;;;;;;2.58;1.45;;;;;;;30.04;31.31;100793.88;5073248;28;20029;-79
2022/06/11 13:31:33;;;;;;;2.90;1.23;;;;;;;29.48;31.94;100786.13;5076687;28;20028;-78
2022/06/11 13:34:17;;;;;;;2.70;1.45;;;;;;;29.91;32.17;100779.72;5096022;28;20029;-78
2022/06/11 13:37:13;;;;;;;2.33;1.50;;;;;;;29.83;34.06;100779.53;5073900;28;20029;-78
2022/06/11 13:40:16;;;;;;;2.38;1.58;;;;;;;29.58;33.70;100777.81;5067748;28;20036;-80
2022/06/11 13:42:47;;;;;;;4.93;1.75;;;;;;;29.51;34.69;100777.28;5065766;28;20764;-80
2022/06/11 13:45:23;;;;;;;4.22;2.17;;;;;;;29.50;32.66;100773.75;5068362;28;20032;-78
2022/06/11 13:48:00;;;;;;;1.83;1.60;;;;;;;29.57;33.90;100778.94;5063794;28;20051;-78
2022/06/11 13:50:49;;;;;;;4.63;1.45;;;;;;;29.38;34.62;100770.53;5066196;28;20036;-79
2022/06/11 13:56:40;;;;;;;4.07;1.65;;;;;;;29.63;32.00;100767.63;5065030;28;20037;-79
2022/06/11 13:59:31;;;;;;;2.85;1.40;;;;;;;29.27;33.49;100756.06;5017346;28;20048;-78
2022/06/11 14:02:51;;;;;;;4.18;1.83;;;;;;;29.14;33.94;100757.53;5073639;28;20039;-79
2022/06/11 14:05:21;;;;;;;3.83;1.65;;;;;;;29.36;33.58;100748.88;4960749;28;20035;-81
2022/06/11 14:07:47;;;;;;;3.70;1.73;;;;;;;29.26;33.41;100759.91;5041028;28;20044;-80
2022/06/11 14:10:22;;;;;;;3.92;1.60;;;;;;;29.30;34.09;100758.25;5057865;28;20041;-81
2022/06/11 14:12:58;;;;;;;5.88;2.53;;;;;;;29.26;33.78;100759.09;5056857;28;20029;-80
2022/06/11 14:15:42;;;;;;;3.05;1.40;;;;;;;29.10;34.88;100753.72;5057775;28;20037;-80
2022/06/11 14:18:23;;;;;;;3.17;1.60;;;;;;;29.16;34.35;100757.25;5058330;28;20033;-82
2022/06/11 14:20:59;;;;;;;3.38;1.85;;;;;;;29.04;35.85;100756.78;5055836;28;20045;-80
2022/06/11 14:23:24;;;;;;;3.70;1.52;;;;;;;29.09;32.96;100749.34;5057067;28;20119;-80
2022/06/11 14:25:54;;;;;;;2.28;1.73;;;;;;;29.05;33.91;100741.97;5057232;28;20516;-80
2022/06/11 14:28:19;;;;;;;3.38;1.70;;;;;;;28.96;33.18;100744.50;5057288;28;20516;-80
2022/06/11 14:30:45;;;;;;;2.60;1.45;;;;;;;29.05;34.22;100750.19;5057876;28;20032;-80
2022/06/11 14:33:13;;;;;;;2.05;1.40;;;;;;;28.98;33.08;100747.78;5055589;28;20044;-80
2022/06/11 14:36:17;;;;;;;2.70;1.45;;;;;;;28.60;33.26;100743.84;5059434;28;20033;-80
2022/06/11 14:38:42;;;;;;;3.42;1.63;;;;;;;28.67;33.63;100744.34;5027311;28;20081;-81
2022/06/11 14:41:10;;;;;;;3.08;1.30;;;;;;;28.78;34.24;100745.13;5058429;28;20079;-81
2022/06/11 14:44:02;;;;;;;6.15;1.65;;;;;;;28.41;33.37;100738.16;5056398;28;20067;-81
2022/06/11 14:46:31;;;;;;;2.83;1.52;;;;;;;28.45;35.40;100742.00;5046942;28;20060;-80
2022/06/11 14:48:58;;;;;;;3.13;1.70;;;;;;;28.63;34.74;100738.63;5057998;28;20036;-81
2022/06/11 14:51:30;;;;;;;3.97;2.83;;;;;;;28.57;35.42;100731.53;5057205;28;20079;-81
2022/06/11 14:54:17;;;;;;;4.32;2.42;;;;;;;28.68;34.07;100735.00;5057002;28;20053;-81
2022/06/11 14:57:05;;;;;;;4.57;1.58;;;;;;;28.56;34.01;100713.44;5058444;28;20037;-82
2022/06/11 14:59:58;;;;;;;4.57;1.40;;;;;;;28.65;35.35;100725.44;5039987;28;20028;-80
2022/06/11 15:02:32;;;;;;;2.60;1.50;;;;;;;28.65;33.06;100719.97;5057872;28;20040;-79
2022/06/11 15:05:22;;;;;;;2.85;1.80;;;;;;;28.54;33.19;100717.56;5055864;28;20087;-79
2022/06/11 15:07:58;;;;;;;3.67;1.30;;;;;;;28.69;34.19;100728.47;5055032;28;20044;-81
2022/06/11 15:10:41;;;;;;;2.13;1.40;;;;;;;28.65;33.93;100719.16;5057423;28;20444;-79
2022/06/11 15:13:09;;;;;;;2.13;1.20;;;;;;;28.69;34.26;100716.66;5057408;28;20032;-79
2022/06/11 15:15:50;;;;;;;3.17;1.60;;;;;;;28.69;34.41;100717.50;5057261;28;20041;-79
2022/06/11 15:18:37;;;;;;;2.25;1.50;;;;;;;28.65;33.34;100714.50;5058390;28;20043;-80
2022/06/11 15:21:28;;;;;;;2.35;1.60;;;;;;;28.68;33.58;100721.31;5057938;28;20101;-80
2022/06/11 15:24:19;;;;;;;3.45;1.45;;;;;;;28.53;34.17;100721.41;5055728;28;20450;-79
2022/06/11 15:27:20;;;;;;;3.97;1.50;;;;;;;28.48;33.54;100714.00;5045458;28;20041;-80
2022/06/11 15:29:46;;;;;;;2.78;1.52;;;;;;;28.45;33.52;100716.50;5057609;28;20103;-80
2022/06/11 15:32:27;;;;;;;1.63;1.30;;;;;;;28.37;32.79;100713.25;5056793;28;20075;-80
2022/06/11 15:34:52;;;;;;;1.45;1.25;;;;;;;28.48;31.83;100715.94;5063631;28;20087;-79
2022/06/11 15:37:18;;;;;;;2.70;1.48;;;;;;;28.43;33.53;100718.69;5061575;28;20064;-79
2022/06/11 15:39:55;;;;;;;2.30;1.05;;;;;;;28.56;32.99;100715.34;5057491;28;20033;-79
2022/06/11 15:42:36;;;;;;;4.55;1.25;;;;;;;28.50;33.13;100711.03;5056280;28;20068;-79
2022/06/11 15:45:06;;;;;;;2.03;1.33;;;;;;;28.46;33.21;100718.97;5057352;28;20033;-79
2022/06/11 15:47:35;;;;;;;3.20;1.30;;;;;;;28.48;32.52;100710.47;5054085;28;20104;-79
2022/06/11 15:50:01;;;;;;;2.75;1.30;;;;;;;28.45;32.93;100722.00;5055436;28;20036;-79
2022/06/11 15:52:40;;;;;;;3.85;1.60;;;;;;;28.42;32.01;100719.81;5053801;28;20393;-79
2022/06/11 15:55:12;;;;;;;3.67;1.52;;;;;;;28.45;33.02;100711.03;5056995;28;20028;-80
2022/06/11 15:57:44;;;;;;;2.33;1.58;;;;;;;28.42;32.64;100722.53;5055904;28;20041;-81
2022/06/11 16:00:35;;;;;;;3.65;1.50;;;;;;;28.39;32.69;100712.97;5057946;28;20049;-82
2022/06/11 16:03:06;;;;;;;4.07;2.08;;;;;;;28.29;33.06;100702.00;5058980;28;20033;-81
2022/06/11 16:05:36;;;;;;;2.85;1.42;;;;;;;28.26;32.08;100713.53;5058188;28;20037;-80
2022/06/11 16:08:02;;;;;;;1.95;1.27;;;;;;;28.13;32.35;100702.09;5060697;28;20119;-79
2022/06/11 16:10:33;;;;;;;3.45;1.58;;;;;;;28.19;32.95;100713.84;5026232;28;20125;-80
2022/06/11 16:12:59;;;;;;;2.85;1.50;;;;;;;28.12;33.33;100713.31;5039579;28;20033;-79
2022/06/11 16:15:33;;;;;;;3.42;2.17;;;;;;;28.16;33.48;100713.56;5041852;28;20047;-80
2022/06/11 16:18:00;;;;;;;4.93;1.67;;;;;;;28.08;33.54;100713.03;5059969;28;20044;-79
2022/06/11 16:20:31;;;;;;;4.43;1.92;;;;;;;28.05;33.05;100712.78;5054785;28;20040;-80
2022/06/11 16:23:03;;;;;;;2.95;2.00;;;;;;;28.09;33.54;100706.47;5057984;28;20037;-79
2022/06/11 16:25:40;;;;;;;3.58;1.63;;;;;;;28.09;34.05;100711.94;5060831;28;20040;-79